Time;durP1;ratioP1;P1;durP2;ratioP2;P2;SDS_P1;SDS_P2;PMS_P1;PMS_P2;Temp;Humidity;BMP_temperature;BMP_pressure;BME280_temperature;BME280_humidity;BME280_pressure;Samples;Min_cycle;Max_cycle;Signal;HPM_P1;HPM_P2
2021/05/08 00:00:23;;;;;;;1.10;0.80;;;;;;;;;;5052938;28;20413;-76
2021/05/08 00:02:51;;;;;;;1.13;1.00;;;;;;;;;;5053106;28;20798;-76
2021/05/08 00:05:17;;;;;;;5.70;2.60;;;;;;;;;;5037647;28;20760;-77
2021/05/08 00:07:44;;;;;;;0.90;0.60;;;;;;;;;;5038043;28;20400;-76
2021/05/08 00:10:19;;;;;;;1.17;0.70;;;;;;;;;;5037685;28;20396;-76
2021/05/08 00:12:45;;;;;;;0.70;0.60;;;;;;;;;;5054248;28;20520;-77
2021/05/08 00:15:12;;;;;;;37.87;27.80;;;;;;;;;;5040178;28;20413;-77
2021/05/08 00:17:38;;;;;;;1.10;1.00;;;;;;;;;;5039634;28;20427;-76
2021/05/08 00:20:05;;;;;;;10.90;5.67;;;;;;;;;;5038805;28;20469;-76
2021/05/08 00:22:31;;;;;;;1.20;0.80;;;;;;;;;;5052501;28;20508;-76
2021/05/08 00:24:57;;;;;;;0.90;0.77;;;;;;;;;;5037706;28;20419;-77
2021/05/08 00:27:23;;;;;;;0.80;0.60;;;;;;;;;;5038494;28;20401;-77
2021/05/08 00:29:54;;;;;;;1.47;0.60;;;;;;;;;;5037761;28;20827;-77
2021/05/08 00:32:20;;;;;;;0.80;0.63;;;;;;;;;;5036756;28;20425;-77
2021/05/08 00:34:49;;;;;;;1.00;0.70;;;;;;;;;;5036243;28;20785;-77
2021/05/08 00:37:17;;;;;;;0.80;0.60;;;;;;;;;;5055153;28;20912;-76
2021/05/08 00:39:43;;;;;;;2.33;1.70;;;;;;;;;;5037771;28;20415;-77
2021/05/08 00:42:16;;;;;;;0.80;0.50;;;;;;;;;;5075395;28;20457;-74
2021/05/08 00:44:43;;;;;;;0.70;0.60;;;;;;;;;;5073465;28;20412;-74
2021/05/08 00:47:11;;;;;;;1.03;0.93;;;;;;;;;;5046335;28;20407;-75
2021/05/08 00:49:37;;;;;;;0.70;0.60;;;;;;;;;;5052631;28;20415;-75
2021/05/08 00:52:03;;;;;;;1.20;0.93;;;;;;;;;;5048019;28;20890;-76
2021/05/08 00:54:29;;;;;;;0.70;0.50;;;;;;;;;;5063264;28;20460;-75
2021/05/08 00:56:55;;;;;;;1.33;0.70;;;;;;;;;;5034144;28;20400;-76
2021/05/08 00:59:21;;;;;;;0.70;0.60;;;;;;;;;;5034377;28;20419;-75
2021/05/08 01:01:47;;;;;;;0.90;0.70;;;;;;;;;;5052343;28;20455;-74
2021/05/08 01:04:13;;;;;;;0.80;0.70;;;;;;;;;;5038483;28;20994;-77
2021/05/08 01:06:39;;;;;;;0.80;0.60;;;;;;;;;;5042636;28;20416;-84
2021/05/08 01:09:06;;;;;;;1.63;0.77;;;;;;;;;;5020642;28;20419;-80
2021/05/08 01:11:34;;;;;;;1.53;0.80;;;;;;;;;;5039997;28;20385;-80
2021/05/08 01:14:00;;;;;;;1.40;1.23;;;;;;;;;;5054287;28;20422;-80
2021/05/08 01:16:26;;;;;;;1.00;0.73;;;;;;;;;;5039167;28;20466;-81
2021/05/08 01:18:54;;;;;;;0.93;0.60;;;;;;;;;;5055437;28;20432;-80
2021/05/08 01:21:20;;;;;;;0.90;0.60;;;;;;;;;;5041169;28;20452;-82
2021/05/08 01:23:49;;;;;;;1.10;0.70;;;;;;;;;;5045108;28;20446;-82
2021/05/08 01:26:15;;;;;;;2.23;0.63;;;;;;;;;;5040678;28;20396;-80
2021/05/08 01:28:42;;;;;;;1.27;0.70;;;;;;;;;;5040233;28;20883;-82
2021/05/08 01:31:11;;;;;;;0.70;0.57;;;;;;;;;;5038729;28;20387;-82
2021/05/08 01:33:41;;;;;;;0.70;0.50;;;;;;;;;;5037909;28;20427;-81
2021/05/08 01:36:07;;;;;;;0.80;0.70;;;;;;;;;;5027248;28;20435;-81
2021/05/08 01:38:33;;;;;;;1.13;1.00;;;;;;;;;;5038677;28;20466;-81
2021/05/08 01:41:00;;;;;;;1.33;1.23;;;;;;;;;;5038559;28;20412;-80
2021/05/08 01:43:27;;;;;;;1.00;0.90;;;;;;;;;;5053226;28;20417;-77
2021/05/08 01:45:53;;;;;;;0.80;0.50;;;;;;;;;;5050076;28;20431;-76
2021/05/08 01:48:19;;;;;;;1.73;0.73;;;;;;;;;;5035235;28;20383;-83
2021/05/08 01:50:45;;;;;;;0.90;0.73;;;;;;;;;;5039903;28;20578;-79
2021/05/08 01:53:11;;;;;;;0.80;0.70;;;;;;;;;;5038975;28;20940;-77
2021/05/08 01:55:37;;;;;;;0.90;0.70;;;;;;;;;;5038116;28;20391;-77
2021/05/08 01:58:03;;;;;;;1.77;0.60;;;;;;;;;;5037616;28;20438;-78
2021/05/08 02:00:33;;;;;;;0.77;0.60;;;;;;;;;;5036153;28;20525;-78
2021/05/08 02:02:59;;;;;;;1.60;1.20;;;;;;;;;;5037410;28;20486;-78
2021/05/08 02:05:33;;;;;;;0.87;0.63;;;;;;;;;;5040696;28;20482;-81
2021/05/08 02:08:04;;;;;;;0.90;0.80;;;;;;;;;;5053254;28;20625;-77
2021/05/08 02:10:30;;;;;;;0.97;0.90;;;;;;;;;;5035496;28;20769;-77
2021/05/08 02:12:57;;;;;;;1.20;0.63;;;;;;;;;;5039992;28;20443;-77
2021/05/08 02:15:23;;;;;;;0.80;0.63;;;;;;;;;;5036449;28;20432;-77
2021/05/08 02:17:49;;;;;;;1.30;1.17;;;;;;;;;;5052144;28;20420;-77
2021/05/08 02:20:17;;;;;;;0.90;0.60;;;;;;;;;;5038319;28;20419;-78
2021/05/08 02:22:43;;;;;;;0.93;0.83;;;;;;;;;;5037728;28;20459;-77
2021/05/08 02:25:11;;;;;;;1.87;0.90;;;;;;;;;;5037480;28;20435;-78
2021/05/08 02:27:38;;;;;;;7.87;1.10;;;;;;;;;;5038321;28;20375;-77
2021/05/08 02:30:05;;;;;;;1.17;0.93;;;;;;;;;;5037636;28;20408;-77
2021/05/08 02:32:31;;;;;;;1.20;1.10;;;;;;;;;;5035388;28;20415;-77
2021/05/08 02:34:57;;;;;;;0.70;0.50;;;;;;;;;;5035964;28;20483;-77
2021/05/08 02:37:23;;;;;;;1.37;1.27;;;;;;;;;;5051998;28;20423;-78
2021/05/08 02:39:49;;;;;;;1.00;0.90;;;;;;;;;;5035833;28;20407;-77
2021/05/08 02:42:16;;;;;;;0.80;0.60;;;;;;;;;;5033244;28;20476;-77
2021/05/08 02:44:42;;;;;;;2.83;0.87;;;;;;;;;;5030632;28;20434;-75
2021/05/08 02:47:17;;;;;;;1.30;0.70;;;;;;;;;;5046205;28;20404;-75
2021/05/08 02:49:51;;;;;;;0.70;0.50;;;;;;;;;;5031615;28;20487;-75
2021/05/08 02:52:18;;;;;;;1.03;0.80;;;;;;;;;;5047195;28;20419;-76
2021/05/08 02:54:46;;;;;;;0.97;0.80;;;;;;;;;;5032304;28;20455;-76
2021/05/08 02:57:15;;;;;;;0.90;0.60;;;;;;;;;;5046912;28;20412;-76
2021/05/08 02:59:41;;;;;;;0.70;0.50;;;;;;;;;;5031511;28;20469;-76
2021/05/08 03:02:07;;;;;;;1.97;0.90;;;;;;;;;;5031795;28;20459;-76
2021/05/08 03:04:34;;;;;;;0.90;0.57;;;;;;;;;;5030787;28;20454;-76
2021/05/08 03:07:03;;;;;;;1.47;1.13;;;;;;;;;;5031354;28;20392;-76
2021/05/08 03:09:29;;;;;;;0.80;0.70;;;;;;;;;;5031100;28;20438;-75
2021/05/08 03:11:55;;;;;;;0.70;0.50;;;;;;;;;;5031462;28;20419;-76
2021/05/08 03:14:21;;;;;;;0.87;0.70;;;;;;;;;;5046446;28;20444;-77
2021/05/08 03:16:47;;;;;;;0.80;0.70;;;;;;;;;;5031702;28;20414;-76
2021/05/08 03:19:13;;;;;;;1.20;0.70;;;;;;;;;;5046170;28;20416;-76
2021/05/08 03:21:39;;;;;;;24.63;19.83;;;;;;;;;;5031263;28;20459;-76
2021/05/08 03:24:08;;;;;;;0.80;0.70;;;;;;;;;;5046093;28;20432;-76
2021/05/08 03:26:34;;;;;;;2.27;0.90;;;;;;;;;;5031442;28;20431;-76
2021/05/08 03:29:00;;;;;;;0.80;0.60;;;;;;;;;;5029937;28;20448;-76
2021/05/08 03:31:26;;;;;;;7.60;1.70;;;;;;;;;;5031227;28;20400;-76
2021/05/08 03:33:55;;;;;;;1.40;1.00;;;;;;;;;;5031116;28;20460;-76
2021/05/08 03:36:21;;;;;;;3.23;1.27;;;;;;;;;;5031113;28;20422;-76
2021/05/08 03:38:49;;;;;;;1.00;0.70;;;;;;;;;;5046332;28;20507;-76
2021/05/08 03:41:15;;;;;;;7.20;1.07;;;;;;;;;;5034794;28;20434;-83
2021/05/08 03:43:41;;;;;;;0.87;0.67;;;;;;;;;;5047419;28;20429;-78
2021/05/08 03:46:07;;;;;;;1.07;0.97;;;;;;;;;;5049900;28;20459;-78
2021/05/08 03:48:37;;;;;;;0.80;0.80;;;;;;;;;;5036407;28;20904;-78
2021/05/08 03:51:04;;;;;;;0.90;0.50;;;;;;;;;;5035886;28;20433;-78
2021/05/08 03:53:30;;;;;;;2.70;1.43;;;;;;;;;;5036921;28;20459;-77
2021/05/08 03:55:56;;;;;;;0.80;0.70;;;;;;;;;;5043707;28;20416;-78
2021/05/08 03:58:27;;;;;;;2.83;0.90;;;;;;;;;;5059614;28;20854;-77
2021/05/08 04:00:53;;;;;;;0.80;0.70;;;;;;;;;;5044973;28;20424;-78
2021/05/08 04:03:19;;;;;;;1.17;0.90;;;;;;;;;;5029366;28;20522;-79
2021/05/08 04:05:45;;;;;;;1.30;0.90;;;;;;;;;;5020909;28;20409;-81
2021/05/08 04:08:12;;;;;;;1.07;0.97;;;;;;;;;;5038403;28;20528;-80
2021/05/08 04:10:38;;;;;;;3.50;1.20;;;;;;;;;;5042910;28;20416;-79
2021/05/08 04:13:04;;;;;;;1.37;0.83;;;;;;;;;;5044244;28;20447;-79
2021/05/08 04:15:30;;;;;;;0.80;0.70;;;;;;;;;;5043538;28;20473;-78
2021/05/08 04:17:56;;;;;;;3.37;1.20;;;;;;;;;;5046691;28;20415;-79
2021/05/08 04:20:22;;;;;;;1.00;0.70;;;;;;;;;;5044233;28;20419;-81
2021/05/08 04:22:48;;;;;;;1.33;0.90;;;;;;;;;;5041929;28;20459;-81
2021/05/08 04:25:13;;;;;;;0.97;0.73;;;;;;;;;;5039652;28;20410;-78
2021/05/08 04:27:40;;;;;;;2.20;0.90;;;;;;;;;;5074923;28;20435;-79
2021/05/08 04:30:07;;;;;;;4.20;1.77;;;;;;;;;;5045849;28;20918;-79
2021/05/08 04:32:33;;;;;;;5.20;1.30;;;;;;;;;;5040622;28;20416;-79
2021/05/08 04:34:59;;;;;;;3.80;1.43;;;;;;;;;;5035986;28;20411;-77
2021/05/08 04:37:25;;;;;;;1.97;1.50;;;;;;;;;;5035569;28;20447;-79
2021/05/08 04:39:51;;;;;;;1.83;1.60;;;;;;;;;;5034354;28;21072;-81
2021/05/08 04:42:17;;;;;;;5.27;2.40;;;;;;;;;;5050158;28;20546;-79
2021/05/08 04:44:43;;;;;;;1.03;0.93;;;;;;;;;;5029476;28;20405;-80
2021/05/08 04:47:12;;;;;;;1.27;0.90;;;;;;;;;;5027277;28;20749;-80
2021/05/08 04:49:38;;;;;;;1.87;1.30;;;;;;;;;;5045670;28;20420;-78
2021/05/08 04:52:04;;;;;;;1.27;1.17;;;;;;;;;;5056146;28;20424;-77
2021/05/08 04:54:30;;;;;;;0.80;0.50;;;;;;;;;;5031324;28;20440;-81
2021/05/08 04:56:56;;;;;;;1.57;1.43;;;;;;;;;;5057282;28;20412;-87
2021/05/08 04:59:22;;;;;;;2.40;2.20;;;;;;;;;;5049436;28;20418;-81
2021/05/08 05:01:48;;;;;;;3.47;1.97;;;;;;;;;;5044973;28;20497;-78
2021/05/08 05:04:14;;;;;;;3.17;1.40;;;;;;;;;;5045794;28;20423;-78
2021/05/08 05:06:40;;;;;;;0.90;0.80;;;;;;;;;;5044250;28;20429;-77
2021/05/08 05:09:06;;;;;;;1.17;1.07;;;;;;;;;;5041056;28;20900;-78
2021/05/08 05:11:32;;;;;;;7.70;2.07;;;;;;;;;;5044050;28;20442;-78
2021/05/08 05:13:58;;;;;;;6.37;1.20;;;;;;;;;;5044547;28;20424;-78
2021/05/08 05:16:25;;;;;;;1.53;0.90;;;;;;;;;;5060105;28;20416;-79
2021/05/08 05:18:51;;;;;;;6.87;1.20;;;;;;;;;;5060684;28;20477;-78
2021/05/08 05:21:17;;;;;;;3.37;0.90;;;;;;;;;;5045261;28;20416;-78
2021/05/08 05:23:43;;;;;;;1.23;1.10;;;;;;;;;;5046134;28;20478;-78
2021/05/08 05:26:09;;;;;;;1.10;0.97;;;;;;;;;;5046065;28;20419;-78
2021/05/08 05:28:38;;;;;;;1.57;1.23;;;;;;;;;;5056009;28;20422;-76
2021/05/08 05:31:04;;;;;;;3.53;1.70;;;;;;;;;;5057351;28;20386;-78
2021/05/08 05:33:30;;;;;;;0.90;0.70;;;;;;;;;;5059312;28;20449;-75
2021/05/08 05:35:58;;;;;;;0.90;0.60;;;;;;;;;;5059592;28;20393;-76
2021/05/08 05:38:25;;;;;;;1.40;1.00;;;;;;;;;;5059502;28;20503;-77
2021/05/08 05:40:56;;;;;;;1.33;1.13;;;;;;;;;;5058686;28;20398;-77
2021/05/08 05:43:22;;;;;;;12.60;0.80;;;;;;;;;;5075453;28;20487;-75
2021/05/08 05:45:48;;;;;;;1.27;0.97;;;;;;;;;;5074303;28;20500;-75
2021/05/08 05:48:14;;;;;;;1.37;1.10;;;;;;;;;;5057117;28;20412;-77
2021/05/08 05:50:41;;;;;;;2.50;1.87;;;;;;;;;;5047577;28;20411;-77
2021/05/08 05:53:08;;;;;;;1.53;1.10;;;;;;;;;;5038825;28;20842;-77
2021/05/08 05:55:34;;;;;;;1.10;1.00;;;;;;;;;;5039642;28;20410;-77
2021/05/08 05:58:02;;;;;;;1.30;0.93;;;;;;;;;;5037796;28;20452;-77
2021/05/08 06:00:31;;;;;;;1.20;1.10;;;;;;;;;;5038339;28;20482;-78
2021/05/08 06:02:57;;;;;;;1.77;1.10;;;;;;;;;;5059596;28;20467;-79
2021/05/08 06:05:23;;;;;;;0.90;0.73;;;;;;;;;;5043143;28;20398;-78
2021/05/08 06:07:49;;;;;;;0.80;0.70;;;;;;;;;;5036647;28;20413;-77
2021/05/08 06:10:15;;;;;;;9.77;1.17;;;;;;;;;;5039882;28;20406;-79
2021/05/08 06:12:41;;;;;;;1.57;1.33;;;;;;;;;;5035678;28;20437;-77
2021/05/08 06:15:08;;;;;;;0.90;0.80;;;;;;;;;;5035545;28;20376;-82
2021/05/08 06:17:35;;;;;;;1.00;0.80;;;;;;;;;;5035724;28;20421;-78
2021/05/08 06:20:01;;;;;;;2.03;0.77;;;;;;;;;;5052189;28;20418;-78
2021/05/08 06:22:27;;;;;;;3.37;2.50;;;;;;;;;;5033833;28;20459;-72
2021/05/08 06:24:53;;;;;;;0.90;0.60;;;;;;;;;;5032678;28;20399;-75
2021/05/08 06:27:19;;;;;;;6.50;1.60;;;;;;;;;;5032663;28;20444;-75
2021/05/08 06:29:45;;;;;;;1.50;1.40;;;;;;;;;;5047636;28;20504;-75
2021/05/08 06:32:10;;;;;;;1.30;1.20;;;;;;;;;;5032357;28;20498;-75
2021/05/08 06:34:39;;;;;;;1.87;0.87;;;;;;;;;;5032452;28;20438;-75
2021/05/08 06:37:05;;;;;;;2.10;1.23;;;;;;;;;;5032253;28;20517;-76
2021/05/08 06:39:31;;;;;;;3.13;1.57;;;;;;;;;;5030796;28;20424;-75
2021/05/08 06:41:57;;;;;;;1.00;0.90;;;;;;;;;;5031273;28;20464;-76
2021/05/08 06:44:25;;;;;;;1.00;0.90;;;;;;;;;;5031711;28;20413;-76
2021/05/08 06:46:52;;;;;;;1.37;1.23;;;;;;;;;;5047872;28;20393;-75
2021/05/08 06:49:18;;;;;;;2.27;1.10;;;;;;;;;;5032544;28;20373;-77
2021/05/08 06:51:44;;;;;;;1.73;1.07;;;;;;;;;;5032582;28;20388;-75
2021/05/08 06:54:10;;;;;;;1.93;1.20;;;;;;;;;;5032159;28;20538;-76
2021/05/08 06:56:36;;;;;;;0.97;0.73;;;;;;;;;;5047547;28;20390;-75
2021/05/08 06:59:02;;;;;;;1.00;0.83;;;;;;;;;;5031937;28;20431;-75
2021/05/08 07:01:28;;;;;;;1.30;1.00;;;;;;;;;;5031291;28;20426;-75
2021/05/08 07:03:56;;;;;;;1.83;0.70;;;;;;;;;;5032101;28;20929;-76
2021/05/08 07:06:25;;;;;;;2.27;1.10;;;;;;;;;;5047012;28;20708;-77
2021/05/08 07:08:52;;;;;;;2.70;1.43;;;;;;;;;;5031484;28;20963;-76
2021/05/08 07:11:18;;;;;;;4.20;1.47;;;;;;;;;;5031655;28;20403;-77
2021/05/08 07:13:44;;;;;;;0.90;0.70;;;;;;;;;;5032286;28;20439;-77
2021/05/08 07:16:10;;;;;;;2.60;1.00;;;;;;;;;;5032298;28;20529;-77
2021/05/08 07:18:38;;;;;;;4.30;1.80;;;;;;;;;;5031520;28;20924;-77
2021/05/08 07:21:04;;;;;;;2.10;1.33;;;;;;;;;;5031863;28;20722;-73
2021/05/08 07:23:30;;;;;;;4.30;1.73;;;;;;;;;;5035697;28;20837;-78
2021/05/08 07:25:56;;;;;;;1.30;1.17;;;;;;;;;;5033787;28;20498;-76
2021/05/08 07:28:24;;;;;;;2.30;0.90;;;;;;;;;;5032976;28;20485;-76
2021/05/08 07:30:51;;;;;;;1.30;1.20;;;;;;;;;;5029398;28;20409;-76
2021/05/08 07:33:18;;;;;;;1.33;0.87;;;;;;;;;;5030390;28;20424;-76
2021/05/08 07:35:44;;;;;;;1.37;1.27;;;;;;;;;;5030302;28;20895;-76
2021/05/08 07:38:11;;;;;;;1.03;0.90;;;;;;;;;;5030904;28;20400;-76
2021/05/08 07:40:38;;;;;;;1.67;1.03;;;;;;;;;;5014496;28;20408;-75
2021/05/08 07:43:04;;;;;;;0.97;0.70;;;;;;;;;;5026341;28;20435;-75
2021/05/08 07:45:31;;;;;;;0.80;0.70;;;;;;;;;;5030973;28;20407;-77
2021/05/08 07:48:00;;;;;;;0.90;0.77;;;;;;;;;;5026831;28;20499;-77
2021/05/08 07:50:29;;;;;;;1.20;0.87;;;;;;;;;;5030513;28;20432;-79
2021/05/08 07:52:56;;;;;;;0.90;0.70;;;;;;;;;;5044731;28;20406;-77
2021/05/08 07:55:22;;;;;;;1.20;0.73;;;;;;;;;;5048271;28;20398;-80
2021/05/08 07:57:48;;;;;;;1.63;0.93;;;;;;;;;;5052397;28;20400;-80
2021/05/08 08:00:15;;;;;;;0.90;0.70;;;;;;;;;;5050861;28;20406;-78
2021/05/08 08:02:41;;;;;;;2.53;1.57;;;;;;;;;;5049770;28;20494;-79
2021/05/08 08:05:07;;;;;;;0.80;0.50;;;;;;;;;;5039965;28;20386;-80
2021/05/08 08:07:36;;;;;;;1.93;1.10;;;;;;;;;;5043614;28;20412;-80
2021/05/08 08:10:05;;;;;;;0.80;0.70;;;;;;;;;;5039588;28;20799;-79
2021/05/08 08:12:31;;;;;;;1.13;0.70;;;;;;;;;;5040874;28;20398;-79
2021/05/08 08:14:57;;;;;;;3.33;1.00;;;;;;;;;;5062839;28;20415;-77
2021/05/08 08:17:23;;;;;;;1.90;0.93;;;;;;;;;;5043056;28;20425;-77
2021/05/08 08:19:50;;;;;;;1.03;0.80;;;;;;;;;;5043067;28;20386;-74
2021/05/08 08:22:16;;;;;;;1.00;0.70;;;;;;;;;;5050406;28;20461;-76
2021/05/08 08:24:43;;;;;;;1.20;1.00;;;;;;;;;;5046795;28;20751;-75
2021/05/08 08:27:09;;;;;;;0.80;0.70;;;;;;;;;;5041683;28;20599;-75
2021/05/08 08:29:34;;;;;;;0.90;0.70;;;;;;;;;;5037062;28;20453;-75
2021/05/08 08:32:00;;;;;;;0.90;0.80;;;;;;;;;;5031665;28;20388;-75
2021/05/08 08:34:26;;;;;;;1.43;0.70;;;;;;;;;;5033666;28;20409;-75
2021/05/08 08:36:52;;;;;;;0.87;0.80;;;;;;;;;;5033442;28;20477;-75
2021/05/08 08:39:18;;;;;;;1.37;0.60;;;;;;;;;;5032530;28;20953;-75
2021/05/08 08:41:44;;;;;;;1.00;0.70;;;;;;;;;;5026885;28;20453;-74
2021/05/08 08:44:11;;;;;;;1.20;0.70;;;;;;;;;;5033371;28;20404;-74
2021/05/08 08:46:44;;;;;;;3.30;1.17;;;;;;;;;;5033997;28;20804;-75
2021/05/08 08:49:11;;;;;;;0.70;0.50;;;;;;;;;;5031903;28;20420;-74
2021/05/08 08:51:37;;;;;;;1.10;1.00;;;;;;;;;;5038042;28;20883;-74
2021/05/08 08:54:03;;;;;;;0.90;0.80;;;;;;;;;;5033117;28;20448;-74
2021/05/08 08:56:39;;;;;;;1.20;1.10;;;;;;;;;;5032159;28;20415;-73
2021/05/08 08:59:15;;;;;;;1.00;0.70;;;;;;;;;;5033025;28;20906;-73
2021/05/08 09:01:42;;;;;;;7.57;1.60;;;;;;;;;;5033229;28;20458;-73
2021/05/08 09:04:11;;;;;;;0.80;0.70;;;;;;;;;;5039722;28;20415;-74
2021/05/08 09:06:39;;;;;;;2.87;2.77;;;;;;;;;;5026824;28;20454;-73
2021/05/08 09:09:05;;;;;;;1.23;1.13;;;;;;;;;;5024037;28;20405;-74
2021/05/08 09:11:31;;;;;;;2.20;0.93;;;;;;;;;;5024661;28;20390;-74
2021/05/08 09:14:19;;;;;;;0.90;0.60;;;;;;;;;;5024936;28;20383;-74
2021/05/08 09:17:03;;;;;;;1.20;1.10;;;;;;;;;;5020220;28;20401;-74
2021/05/08 09:19:31;;;;;;;2.27;1.10;;;;;;;;;;5015690;28;20442;-74
2021/05/08 09:21:58;;;;;;;1.33;1.23;;;;;;;;;;5020879;28;20547;-74
2021/05/08 09:24:26;;;;;;;1.33;0.80;;;;;;;;;;5032397;28;20433;-75
2021/05/08 09:27:00;;;;;;;0.90;0.80;;;;;;;;;;5047140;28;20404;-75
2021/05/08 09:29:26;;;;;;;1.10;1.00;;;;;;;;;;5028778;28;20489;-73
2021/05/08 09:31:58;;;;;;;1.30;1.20;;;;;;;;;;5030611;28;20412;-74
2021/05/08 09:34:24;;;;;;;0.90;0.80;;;;;;;;;;5022864;28;20494;-73
2021/05/08 09:36:51;;;;;;;1.30;1.20;;;;;;;;;;5032751;28;20387;-74
2021/05/08 09:39:30;;;;;;;0.90;0.77;;;;;;;;;;5026661;28;20942;-73
2021/05/08 09:41:56;;;;;;;1.30;1.00;;;;;;;;;;5027223;28;20500;-72
2021/05/08 09:44:22;;;;;;;1.10;1.00;;;;;;;;;;5042436;28;20404;-71
2021/05/08 09:46:48;;;;;;;1.57;1.20;;;;;;;;;;5060830;28;20412;-75
2021/05/08 09:49:19;;;;;;;1.20;0.70;;;;;;;;;;5039085;28;20420;-73
2021/05/08 09:51:45;;;;;;;1.33;0.97;;;;;;;;;;5057222;28;20408;-74
2021/05/08 09:54:15;;;;;;;1.23;0.90;;;;;;;;;;5037481;28;20460;-76
2021/05/08 09:56:45;;;;;;;3.07;0.90;;;;;;;;;;5041155;28;20618;-76
2021/05/08 09:59:26;;;;;;;1.50;0.80;;;;;;;;;;5030419;28;20751;-74
2021/05/08 10:02:05;;;;;;;0.90;0.80;;;;;;;;;;5030622;28;20974;-74
2021/05/08 10:04:56;;;;;;;0.90;0.60;;;;;;;;;;5026843;28;20479;-72
2021/05/08 10:07:22;;;;;;;1.10;1.00;;;;;;;;;;5030049;28;20426;-75
2021/05/08 10:09:49;;;;;;;1.00;0.90;;;;;;;;;;5047048;28;20484;-74
2021/05/08 10:12:22;;;;;;;2.07;1.33;;;;;;;;;;5030602;28;20409;-74
2021/05/08 10:14:49;;;;;;;2.60;0.87;;;;;;;;;;5030042;28;20840;-75
2021/05/08 10:17:17;;;;;;;1.00;0.80;;;;;;;;;;5019716;28;20405;-74
2021/05/08 10:19:47;;;;;;;1.20;1.00;;;;;;;;;;5034102;28;20427;-76
2021/05/08 10:22:14;;;;;;;1.10;0.80;;;;;;;;;;5032468;28;20780;-71
2021/05/08 10:24:41;;;;;;;0.80;0.60;;;;;;;;;;5041954;28;20411;-72
2021/05/08 10:27:07;;;;;;;2.23;1.07;;;;;;;;;;5032190;28;20387;-72
2021/05/08 10:29:36;;;;;;;1.00;0.90;;;;;;;;;;5046316;28;20888;-72
2021/05/08 10:32:04;;;;;;;1.00;0.90;;;;;;;;;;5039634;28;20414;-75
2021/05/08 10:34:33;;;;;;;0.80;0.80;;;;;;;;;;5050735;28;20816;-75
2021/05/08 10:37:05;;;;;;;1.47;0.83;;;;;;;;;;5029223;28;20461;-75
2021/05/08 10:39:48;;;;;;;1.40;1.00;;;;;;;;;;5035211;28;20411;-79
2021/05/08 10:42:29;;;;;;;2.07;0.97;;;;;;;;;;5023600;28;20456;-79
2021/05/08 10:44:55;;;;;;;2.30;1.40;;;;;;;;;;5035259;28;20408;-74
2021/05/08 10:47:21;;;;;;;2.03;1.10;;;;;;;;;;5048832;28;20930;-77
2021/05/08 10:50:16;;;;;;;2.60;1.10;;;;;;;;;;5035677;28;20522;-73
2021/05/08 10:53:01;;;;;;;7.53;3.40;;;;;;;;;;5022340;28;20477;-78
2021/05/08 10:55:31;;;;;;;4.10;1.30;;;;;;;;;;5027983;28;20424;-75
2021/05/08 10:58:21;;;;;;;1.60;1.37;;;;;;;;;;5042672;28;20450;-76
2021/05/08 11:00:47;;;;;;;1.60;0.77;;;;;;;;;;5040399;28;20424;-74
2021/05/08 11:03:13;;;;;;;1.63;1.13;;;;;;;;;;5035240;28;20456;-75
2021/05/08 11:06:01;;;;;;;2.63;1.77;;;;;;;;;;5027728;28;20416;-78
2021/05/08 11:08:28;;;;;;;2.13;1.67;;;;;;;;;;5037783;28;20496;-76
2021/05/08 11:10:55;;;;;;;1.73;0.97;;;;;;;;;;5036767;28;20498;-76
2021/05/08 11:13:21;;;;;;;2.60;1.13;;;;;;;;;;5033412;28;20435;-78
2021/05/08 11:16:08;;;;;;;1.80;1.07;;;;;;;;;;5022062;28;20408;-77
2021/05/08 11:18:34;;;;;;;0.80;0.70;;;;;;;;;;5028775;28;20409;-76
2021/05/08 11:21:23;;;;;;;1.67;1.53;;;;;;;;;;5047639;28;20623;-76
2021/05/08 11:23:50;;;;;;;1.80;1.10;;;;;;;;;;5070947;28;20451;-77
2021/05/08 11:28:58;;;;;;;1.43;1.33;;;;;;;;;;5058767;28;20413;-76
2021/05/08 11:31:24;;;;;;;1.00;0.70;;;;;;;;;;5054117;28;20427;-77
2021/05/08 11:33:51;;;;;;;1.20;0.97;;;;;;;;;;5054678;28;20428;-77
2021/05/08 11:36:17;;;;;;;11.67;1.20;;;;;;;;;;5048572;28;20533;-77
2021/05/08 11:38:43;;;;;;;1.87;1.37;;;;;;;;;;5033349;28;20408;-75
2021/05/08 11:41:18;;;;;;;1.37;0.97;;;;;;;;;;5032243;28;20415;-76
2021/05/08 11:43:52;;;;;;;1.67;1.57;;;;;;;;;;5036063;28;20784;-74
2021/05/08 11:46:24;;;;;;;1.60;1.30;;;;;;;;;;5024713;28;20416;-76
2021/05/08 11:48:50;;;;;;;1.33;1.00;;;;;;;;;;5046828;28;20870;-76
2021/05/08 11:51:19;;;;;;;1.00;0.90;;;;;;;;;;5030985;28;20427;-75
2021/05/08 11:53:45;;;;;;;1.53;1.43;;;;;;;;;;5031116;28;20539;-75
2021/05/08 11:56:11;;;;;;;1.53;1.43;;;;;;;;;;5030437;28;20444;-73
2021/05/08 11:58:36;;;;;;;3.80;1.10;;;;;;;;;;5030024;28;20379;-74
2021/05/08 12:01:03;;;;;;;3.53;3.33;;;;;;;;;;5030659;28;20458;-75
2021/05/08 12:03:29;;;;;;;1.23;0.97;;;;;;;;;;5030935;28;20426;-75
2021/05/08 12:05:55;;;;;;;1.47;1.13;;;;;;;;;;5030550;28;20898;-73
2021/05/08 12:08:22;;;;;;;1.30;0.80;;;;;;;;;;5030722;28;20543;-75
2021/05/08 12:10:49;;;;;;;0.93;0.70;;;;;;;;;;5029557;28;20385;-75
2021/05/08 12:13:15;;;;;;;1.17;0.97;;;;;;;;;;5030188;28;20466;-75
2021/05/08 12:15:45;;;;;;;6.70;0.90;;;;;;;;;;5044663;28;20419;-74
2021/05/08 12:18:16;;;;;;;1.33;0.90;;;;;;;;;;5045872;28;20820;-75
2021/05/08 12:20:49;;;;;;;4.67;1.10;;;;;;;;;;5031041;28;20412;-75
2021/05/08 12:23:19;;;;;;;3.00;0.90;;;;;;;;;;5029152;28;20487;-75
2021/05/08 12:26:21;;;;;;;1.90;0.77;;;;;;;;;;5029008;28;20416;-75
2021/05/08 12:28:48;;;;;;;0.80;0.70;;;;;;;;;;4988779;28;20414;-75
2021/05/08 12:31:35;;;;;;;6.63;2.10;;;;;;;;;;5022528;28;20408;-75
2021/05/08 12:34:08;;;;;;;1.00;0.90;;;;;;;;;;5030758;28;20466;-75
2021/05/08 12:36:36;;;;;;;1.40;0.87;;;;;;;;;;5034485;28;20739;-75
2021/05/08 12:39:31;;;;;;;1.47;1.10;;;;;;;;;;5034427;28;20379;-75
2021/05/08 12:41:58;;;;;;;4.43;1.53;;;;;;;;;;5025603;28;20495;-78
2021/05/08 12:44:34;;;;;;;1.10;0.87;;;;;;;;;;5032917;28;20990;-75
2021/05/08 12:47:03;;;;;;;1.97;1.40;;;;;;;;;;5034166;28;20483;-75
2021/05/08 12:49:30;;;;;;;0.90;0.70;;;;;;;;;;5033988;28;20404;-75
2021/05/08 12:51:56;;;;;;;1.30;0.77;;;;;;;;;;5034038;28;20902;-75
2021/05/08 12:54:25;;;;;;;1.27;0.87;;;;;;;;;;5033913;28;20458;-74
2021/05/08 12:56:53;;;;;;;1.40;1.30;;;;;;;;;;5048934;28;20420;-74
2021/05/08 12:59:24;;;;;;;1.50;1.40;;;;;;;;;;5033596;28;20410;-74
2021/05/08 13:01:54;;;;;;;1.00;0.80;;;;;;;;;;5033777;28;20430;-75
2021/05/08 13:04:20;;;;;;;2.20;1.93;;;;;;;;;;5033495;28;20435;-74
2021/05/08 13:06:46;;;;;;;1.23;1.10;;;;;;;;;;5033758;28;20404;-75
2021/05/08 13:09:21;;;;;;;2.03;0.93;;;;;;;;;;5033185;28;20973;-74
2021/05/08 13:11:47;;;;;;;1.27;1.17;;;;;;;;;;5033750;28;20488;-75
2021/05/08 13:14:16;;;;;;;1.33;1.03;;;;;;;;;;5033500;28;20503;-75
2021/05/08 13:16:42;;;;;;;1.87;0.70;;;;;;;;;;5032338;28;20416;-75
2021/05/08 13:19:08;;;;;;;1.20;0.83;;;;;;;;;;5033356;28;20408;-74
2021/05/08 13:21:34;;;;;;;0.90;0.80;;;;;;;;;;5048676;28;20935;-74
2021/05/08 13:24:05;;;;;;;1.37;1.27;;;;;;;;;;5033341;28;20841;-74
2021/05/08 13:26:32;;;;;;;0.90;0.77;;;;;;;;;;5032368;28;20498;-75
2021/05/08 13:29:00;;;;;;;0.97;0.87;;;;;;;;;;5032979;28;20412;-75
2021/05/08 13:31:26;;;;;;;1.10;1.00;;;;;;;;;;5032888;28;20407;-73
2021/05/08 13:33:52;;;;;;;1.00;0.87;;;;;;;;;;5033254;28;20406;-75
2021/05/08 13:36:19;;;;;;;1.00;0.90;;;;;;;;;;5048355;28;20448;-75
2021/05/08 13:38:48;;;;;;;1.40;1.07;;;;;;;;;;5033336;28;20864;-74
2021/05/08 13:41:14;;;;;;;0.97;0.77;;;;;;;;;;5032984;28;20457;-74
2021/05/08 13:43:41;;;;;;;1.10;0.87;;;;;;;;;;5031631;28;20483;-74
2021/05/08 13:46:07;;;;;;;5.30;1.67;;;;;;;;;;5048206;28;20505;-76
2021/05/08 13:48:37;;;;;;;2.93;2.53;;;;;;;;;;5031188;28;20390;-76
2021/05/08 13:51:02;;;;;;;2.07;1.97;;;;;;;;;;5032737;28;20400;-76
2021/05/08 13:53:28;;;;;;;1.73;1.63;;;;;;;;;;5032520;28;20601;-76
2021/05/08 13:55:57;;;;;;;1.57;1.23;;;;;;;;;;5031854;28;20498;-75
2021/05/08 13:58:23;;;;;;;1.33;1.03;;;;;;;;;;5032759;28;20473;-75
2021/05/08 14:00:49;;;;;;;1.57;1.03;;;;;;;;;;5032486;28;20436;-75
2021/05/08 14:03:15;;;;;;;1.33;0.90;;;;;;;;;;5032643;28;20466;-75
2021/05/08 14:05:43;;;;;;;2.60;1.20;;;;;;;;;;5032537;28;20408;-74
2021/05/08 14:08:09;;;;;;;1.33;1.20;;;;;;;;;;5032858;28;20457;-75
2021/05/08 14:10:35;;;;;;;0.80;0.60;;;;;;;;;;5032540;28;20412;-74
2021/05/08 14:13:01;;;;;;;2.13;1.20;;;;;;;;;;5030921;28;20906;-74
2021/05/08 14:15:27;;;;;;;1.00;0.77;;;;;;;;;;5047347;28;20440;-74
2021/05/08 14:17:53;;;;;;;1.13;1.03;;;;;;;;;;5032295;28;20386;-75
2021/05/08 14:20:19;;;;;;;2.33;0.80;;;;;;;;;;5032158;28;20412;-74
2021/05/08 14:22:45;;;;;;;1.10;0.83;;;;;;;;;;5047792;28;20823;-74
2021/05/08 14:25:12;;;;;;;1.43;1.00;;;;;;;;;;5033133;28;20396;-75
2021/05/08 14:27:40;;;;;;;2.10;1.43;;;;;;;;;;5032721;28;20396;-75
2021/05/08 14:30:10;;;;;;;3.63;1.17;;;;;;;;;;5047408;28;20412;-75
2021/05/08 14:32:36;;;;;;;1.40;1.30;;;;;;;;;;5031090;28;20420;-75
2021/05/08 14:35:02;;;;;;;0.80;0.70;;;;;;;;;;5032795;28;20424;-75
2021/05/08 14:37:28;;;;;;;1.10;0.80;;;;;;;;;;5032712;28;20424;-76
2021/05/08 14:39:54;;;;;;;2.80;1.37;;;;;;;;;;5032503;28;20483;-74
2021/05/08 14:42:22;;;;;;;0.80;0.70;;;;;;;;;;5033570;28;20447;-75
2021/05/08 14:44:51;;;;;;;4.40;0.90;;;;;;;;;;5047469;28;20391;-75
2021/05/08 14:47:21;;;;;;;3.80;0.90;;;;;;;;;;5032377;28;20378;-76
2021/05/08 14:49:49;;;;;;;1.40;1.30;;;;;;;;;;5014905;28;20453;-76